Ana Sayfa
METAR-TAF:

METAR-TAF

Havaalanları :

Johannesburg, Güney Afrika

Enlem: 26-09S, Boylam: 28-00E, yükseklik: 1626 m

Güncel hava durumu gözlemi

Rapor saat 08:00 UTC de 12 dakika önce yapıldı.
Rüzgar kuzey/kuzeybatıdan 2 kt
Sıcaklık 21°C
Nem 43%
Basınç 1027 hPa

METAR: FAJB 150800Z AUTO 34002KT //// // ////// 21/08 Q1027

Saat: 10:12 (08:12 UTC)


TAF: eksik

4.000'den fazla havaalanı için hava durumu gözlemleri ve tahminleri (METAR ve TAF raporları).

Kullanılabilir istasyonlar harita üzerinde sarı ve kırmızı noktalarla gösterilir.

İstasyonun adını görmek için fareyi noktanın üzerinde gezdirin.

Sonrasında hava gözlem ve tahminlerini görmek için tıklayın.

Haritayı değiştirmek için: yaklaştırmak için siyah artı işaretli yeşil düğmeye ve uzaklaştırmak için de eksi işaretli düğmeye hızla tıklayın; bitişik haritalar için yeşil okları kullanın.


METAR-TAF: